Time;durP1;ratioP1;P1;durP2;ratioP2;P2;SDS_P1;SDS_P2;PMS_P1;PMS_P2;Temp;Humidity;BMP_temperature;BMP_pressure;BME280_temperature;BME280_humidity;BME280_pressure;Samples;Min_cycle;Max_cycle;Signal;HPM_P1;HPM_P2
2021/12/06 00:01:03;;;;;;;50.80;30.33;;;2.20;99.90;;;;;;5036806;28;20545;-62
2021/12/06 00:03:37;;;;;;;43.83;28.20;;;2.10;99.90;;;;;;5057410;28;20473;-62
2021/12/06 00:06:05;;;;;;;46.27;29.77;;;2.20;99.90;;;;;;5059097;28;20515;-62
2021/12/06 00:08:33;;;;;;;49.73;31.53;;;2.10;99.90;;;;;;5057770;28;20478;-60
2021/12/06 00:11:07;;;;;;;45.63;29.13;;;2.00;99.90;;;;;;5054176;28;20491;-62
2021/12/06 00:13:37;;;;;;;45.53;28.67;;;2.00;99.90;;;;;;5053081;28;20497;-62
2021/12/06 00:16:08;;;;;;;46.17;29.10;;;2.00;99.90;;;;;;5061723;28;20480;-61
2021/12/06 00:18:37;;;;;;;44.83;29.20;;;2.00;99.90;;;;;;5048235;28;20521;-62
2021/12/06 00:21:06;;;;;;;43.57;28.27;;;2.00;99.90;;;;;;5053373;28;20542;-62
2021/12/06 00:23:34;;;;;;;47.20;29.33;;;2.00;99.90;;;;;;5060728;28;20546;-62
2021/12/06 00:26:05;;;;;;;45.27;27.33;;;2.00;99.90;;;;;;5052876;28;20928;-62
2021/12/06 00:28:33;;;;;;;48.30;29.73;;;2.10;99.90;;;;;;5051499;28;20471;-62
2021/12/06 00:31:02;;;;;;;50.70;29.27;;;2.30;99.90;;;;;;5049429;28;20478;-62
2021/12/06 00:33:31;;;;;;;59.27;32.83;;;2.40;99.90;;;;;;5051283;28;20502;-62
2021/12/06 00:36:04;;;;;;;54.87;33.73;;;2.20;99.90;;;;;;5057646;28;20487;-62
2021/12/06 00:38:33;;;;;;;53.10;32.03;;;2.10;99.90;;;;;;5053647;28;20505;-62
2021/12/06 00:41:05;;;;;;;53.23;31.20;;;2.00;99.90;;;;;;5058323;28;20474;-61
2021/12/06 00:43:33;;;;;;;46.27;28.90;;;2.00;99.90;;;;;;5055684;28;20553;-62
2021/12/06 00:46:01;;;;;;;43.40;27.33;;;2.10;99.90;;;;;;5048049;28;20999;-62
2021/12/06 00:48:30;;;;;;;46.77;28.83;;;2.10;99.90;;;;;;5061374;28;20471;-61
2021/12/06 00:50:58;;;;;;;48.57;30.53;;;2.10;99.90;;;;;;5053795;28;20474;-61
2021/12/06 00:53:27;;;;;;;50.07;30.63;;;2.20;99.90;;;;;;5054205;28;20898;-62
2021/12/06 00:55:55;;;;;;;49.50;30.40;;;2.10;99.90;;;;;;5054374;28;20463;-62
2021/12/06 00:58:26;;;;;;;43.27;28.03;;;2.00;99.90;;;;;;5045336;28;20554;-62
2021/12/06 01:00:55;;;;;;;43.97;28.27;;;2.00;99.90;;;;;;5053464;28;20471;-61
2021/12/06 01:03:26;;;;;;;48.97;29.87;;;2.00;99.90;;;;;;5054586;28;20473;-62
2021/12/06 01:05:55;;;;;;;41.33;26.57;;;2.10;99.90;;;;;;5055554;28;20828;-61
2021/12/06 01:08:24;;;;;;;42.70;27.13;;;2.00;99.90;;;;;;5050399;28;20485;-62
2021/12/06 01:10:55;;;;;;;36.37;23.83;;;2.00;99.90;;;;;;5056623;28;20475;-61
2021/12/06 01:13:29;;;;;;;44.17;26.67;;;2.10;99.90;;;;;;5051892;28;20479;-61
2021/12/06 01:15:59;;;;;;;42.87;27.03;;;2.10;99.90;;;;;;5052212;28;20482;-62
2021/12/06 01:18:28;;;;;;;44.67;27.07;;;2.20;99.90;;;;;;5050337;28;20530;-62
2021/12/06 01:21:05;;;;;;;45.83;29.10;;;2.30;99.90;;;;;;5054280;28;20486;-62
2021/12/06 01:23:48;;;;;;;47.13;29.53;;;2.20;99.90;;;;;;5063284;28;20475;-61
2021/12/06 01:26:35;;;;;;;47.50;29.63;;;2.10;99.90;;;;;;5067294;28;20474;-62
2021/12/06 01:31:54;;;;;;;38.93;24.97;;;2.00;99.90;;;;;;5047560;28;20477;-62
2021/12/06 01:39:58;;;;;;;44.30;27.93;;;2.10;99.90;;;;;;5058976;28;20471;-62
2021/12/06 01:42:26;;;;;;;47.20;29.53;;;2.00;99.90;;;;;;5047391;28;21004;-60
2021/12/06 01:44:59;;;;;;;41.37;28.43;;;2.00;99.90;;;;;;5049976;28;20471;-60
2021/12/06 01:47:31;;;;;;;44.40;27.40;;;2.00;99.90;;;;;;5044271;28;20478;-62
2021/12/06 01:50:06;;;;;;;44.17;28.53;;;2.10;99.90;;;;;;5053214;28;20480;-62
2021/12/06 01:52:46;;;;;;;42.90;27.53;;;2.10;99.90;;;;;;5050364;28;20546;-62
2021/12/06 01:55:17;;;;;;;44.80;27.90;;;2.00;99.90;;;;;;5053229;28;20548;-61
2021/12/06 01:57:46;;;;;;;43.67;27.73;;;2.10;99.90;;;;;;5054554;28;20475;-62
2021/12/06 02:00:23;;;;;;;41.90;27.07;;;2.10;99.90;;;;;;5063668;28;20490;-62
2021/12/06 02:02:57;;;;;;;45.13;28.07;;;2.00;99.90;;;;;;5050346;28;20594;-62
2021/12/06 02:05:31;;;;;;;48.37;27.70;;;2.00;99.90;;;;;;5048938;28;20471;-62
2021/12/06 02:08:00;;;;;;;46.07;27.37;;;2.20;99.90;;;;;;5055865;28;20497;-62
2021/12/06 02:10:29;;;;;;;48.07;30.83;;;2.40;99.90;;;;;;5053182;28;20516;-62
2021/12/06 02:12:57;;;;;;;50.13;30.87;;;2.20;99.90;;;;;;5058698;28;20470;-62
2021/12/06 02:15:39;;;;;;;44.47;29.60;;;2.10;99.90;;;;;;5054337;28;20483;-62
2021/12/06 02:18:16;;;;;;;49.47;29.13;;;2.10;99.90;;;;;;5053094;28;20524;-62
2021/12/06 02:20:49;;;;;;;43.07;27.43;;;2.00;99.90;;;;;;5055538;28;20488;-62
2021/12/06 02:23:19;;;;;;;43.67;25.67;;;2.10;99.90;;;;;;5054663;28;20471;-62
2021/12/06 02:25:47;;;;;;;48.03;29.93;;;2.10;99.90;;;;;;5056126;28;20537;-62
2021/12/06 02:28:15;;;;;;;45.27;28.20;;;2.10;99.90;;;;;;5052805;28;20483;-61
2021/12/06 02:30:44;;;;;;;52.40;31.00;;;2.20;99.90;;;;;;5061026;28;20470;-62
2021/12/06 02:33:12;;;;;;;47.67;29.53;;;2.30;99.90;;;;;;5052699;28;20474;-62
2021/12/06 02:35:40;;;;;;;47.73;29.73;;;2.10;99.90;;;;;;5056630;28;20502;-62
2021/12/06 02:38:08;;;;;;;45.57;29.20;;;2.10;99.90;;;;;;5062894;28;20474;-61
2021/12/06 02:40:41;;;;;;;44.50;29.27;;;2.00;99.90;;;;;;5048710;28;20468;-62
2021/12/06 02:43:10;;;;;;;45.70;28.03;;;2.00;99.90;;;;;;5054109;28;20481;-61
2021/12/06 02:45:39;;;;;;;45.50;28.60;;;2.00;99.90;;;;;;5054736;28;20475;-62
2021/12/06 02:48:09;;;;;;;43.43;27.33;;;2.00;99.90;;;;;;5060475;28;20493;-62
2021/12/06 02:50:41;;;;;;;41.37;28.13;;;2.10;99.90;;;;;;5064305;28;20482;-62
2021/12/06 02:53:09;;;;;;;41.37;26.60;;;2.00;99.90;;;;;;5059014;28;20998;-61
2021/12/06 02:55:40;;;;;;;38.20;26.07;;;2.00;99.90;;;;;;5051530;28;20897;-62
2021/12/06 02:58:17;;;;;;;39.60;24.20;;;2.00;99.90;;;;;;5056484;28;20473;-61
2021/12/06 03:00:51;;;;;;;44.40;27.83;;;2.10;99.90;;;;;;5066395;28;20471;-62
2021/12/06 03:03:20;;;;;;;42.63;26.23;;;2.10;99.90;;;;;;5051230;28;21028;-62
2021/12/06 03:05:50;;;;;;;42.07;26.07;;;2.20;99.90;;;;;;5051635;28;20881;-62
2021/12/06 03:08:37;;;;;;;43.80;26.20;;;2.10;99.90;;;;;;5055546;28;21046;-62
2021/12/06 03:11:08;;;;;;;43.60;27.80;;;2.10;99.90;;;;;;5066611;28;20979;-61
2021/12/06 03:13:37;;;;;;;45.83;26.37;;;1.90;99.90;;;;;;5051974;28;21232;-61
2021/12/06 03:16:06;;;;;;;45.30;28.17;;;2.00;99.90;;;;;;5058890;28;20977;-62
2021/12/06 03:18:35;;;;;;;42.70;26.70;;;2.10;99.90;;;;;;5049410;28;20533;-62
2021/12/06 03:21:05;;;;;;;45.90;26.50;;;2.10;99.90;;;;;;5052467;28;20490;-62
2021/12/06 03:23:33;;;;;;;43.90;26.57;;;2.10;99.90;;;;;;5055795;28;20480;-62
2021/12/06 03:26:02;;;;;;;47.33;28.93;;;2.10;99.90;;;;;;5071333;28;20486;-62
2021/12/06 03:28:36;;;;;;;44.53;25.43;;;2.00;99.90;;;;;;5048374;28;20879;-62
2021/12/06 03:31:06;;;;;;;44.77;27.70;;;2.00;99.90;;;;;;5047042;28;20515;-61
2021/12/06 03:33:35;;;;;;;47.97;29.23;;;2.00;99.90;;;;;;5063328;28;20498;-62
2021/12/06 03:36:06;;;;;;;47.27;29.63;;;1.90;99.90;;;;;;5058217;28;20889;-62
2021/12/06 03:38:37;;;;;;;47.37;29.60;;;1.70;99.90;;;;;;5049634;28;20495;-62
2021/12/06 03:41:07;;;;;;;52.77;30.63;;;1.70;99.90;;;;;;5061423;28;20513;-61
2021/12/06 03:43:37;;;;;;;53.20;30.33;;;1.80;99.90;;;;;;5051102;28;20479;-62
2021/12/06 03:46:08;;;;;;;47.57;30.57;;;1.80;99.90;;;;;;5053528;28;20479;-62
2021/12/06 03:48:37;;;;;;;46.80;29.63;;;1.80;99.90;;;;;;5069052;28;20534;-62
2021/12/06 03:51:06;;;;;;;49.20;29.93;;;1.70;99.90;;;;;;5054941;28;20505;-62
2021/12/06 03:53:35;;;;;;;51.50;30.13;;;1.60;99.90;;;;;;5055769;28;20473;-61
2021/12/06 03:56:04;;;;;;;51.43;31.57;;;1.50;99.90;;;;;;5069594;28;20479;-62
2021/12/06 03:58:33;;;;;;;50.80;29.87;;;1.40;99.90;;;;;;5050898;28;20481;-62
2021/12/06 04:01:04;;;;;;;47.13;29.50;;;1.30;99.90;;;;;;5062558;28;20466;-62
2021/12/06 04:03:35;;;;;;;50.67;29.90;;;1.40;99.90;;;;;;5065915;28;20485;-62
2021/12/06 04:06:07;;;;;;;45.37;29.40;;;1.30;99.90;;;;;;5054701;28;20478;-62
2021/12/06 04:08:35;;;;;;;46.97;29.53;;;1.30;99.90;;;;;;5057069;28;20895;-62
2021/12/06 04:11:04;;;;;;;47.20;28.90;;;1.50;99.90;;;;;;5053476;28;20530;-61
2021/12/06 04:13:35;;;;;;;47.57;29.93;;;1.40;99.90;;;;;;5050465;28;20462;-62
2021/12/06 04:16:06;;;;;;;44.77;28.67;;;1.30;99.90;;;;;;5057967;28;20486;-62
2021/12/06 04:18:37;;;;;;;42.73;27.67;;;1.30;99.90;;;;;;5064518;28;20467;-62
2021/12/06 04:21:09;;;;;;;40.07;25.23;;;1.20;99.90;;;;;;5068402;28;20471;-62
2021/12/06 04:23:38;;;;;;;50.87;24.37;;;1.30;99.90;;;;;;5050629;28;20494;-62
2021/12/06 04:26:08;;;;;;;37.77;23.07;;;1.20;99.90;;;;;;5069269;28;20487;-62
2021/12/06 04:28:43;;;;;;;32.33;21.97;;;1.10;99.90;;;;;;5046494;28;20954;-61
2021/12/06 04:31:15;;;;;;;28.27;20.47;;;1.00;99.90;;;;;;5067691;28;20486;-62
2021/12/06 04:33:44;;;;;;;28.97;20.83;;;1.00;99.90;;;;;;5051164;28;20499;-62
2021/12/06 04:36:32;;;;;;;26.97;20.13;;;1.00;99.90;;;;;;5049183;28;20546;-62
2021/12/06 04:39:02;;;;;;;27.47;17.63;;;0.90;99.90;;;;;;5049257;28;20968;-61
2021/12/06 04:41:31;;;;;;;26.13;19.37;;;0.90;99.90;;;;;;5047251;28;20474;-62
2021/12/06 04:43:59;;;;;;;25.83;18.80;;;0.80;99.90;;;;;;5054505;28;20497;-62
2021/12/06 04:46:29;;;;;;;26.13;18.07;;;0.80;99.90;;;;;;5064920;28;20491;-60
2021/12/06 04:48:58;;;;;;;24.80;18.63;;;0.80;99.90;;;;;;5047250;28;20589;-62
2021/12/06 04:51:26;;;;;;;22.93;17.90;;;0.80;99.90;;;;;;5045839;28;20465;-62
2021/12/06 04:53:55;;;;;;;22.17;17.60;;;0.80;99.90;;;;;;5048688;28;20471;-62
2021/12/06 04:56:27;;;;;;;24.53;19.00;;;0.80;99.90;;;;;;5048202;28;20480;-61
2021/12/06 04:59:01;;;;;;;28.53;19.23;;;0.80;99.90;;;;;;5064950;28;20470;-60
2021/12/06 05:01:33;;;;;;;31.40;21.60;;;0.90;99.90;;;;;;5044954;28;20473;-62
2021/12/06 05:04:06;;;;;;;34.03;23.27;;;0.90;99.90;;;;;;5064697;28;20569;-60
2021/12/06 05:06:37;;;;;;;38.47;23.57;;;1.00;99.90;;;;;;5062833;28;20557;-62
2021/12/06 05:09:12;;;;;;;41.27;26.07;;;1.20;99.90;;;;;;5055924;28;20481;-61
2021/12/06 05:11:41;;;;;;;41.00;27.53;;;1.20;99.90;;;;;;5061647;28;20968;-62
2021/12/06 05:14:10;;;;;;;42.40;28.07;;;1.30;99.90;;;;;;5058382;28;20481;-60
2021/12/06 05:16:40;;;;;;;46.00;28.60;;;1.40;99.90;;;;;;5043225;28;20471;-62
2021/12/06 05:19:09;;;;;;;47.93;28.73;;;1.50;99.90;;;;;;5045339;28;20802;-62
2021/12/06 05:21:40;;;;;;;43.10;27.60;;;1.60;99.90;;;;;;5047848;28;20480;-62
2021/12/06 05:24:09;;;;;;;45.83;28.43;;;1.60;99.90;;;;;;5050078;28;20944;-62
2021/12/06 05:26:38;;;;;;;51.57;31.63;;;1.70;99.90;;;;;;5047259;28;20476;-60
2021/12/06 05:29:10;;;;;;;48.20;30.43;;;1.70;99.90;;;;;;5051903;28;20553;-62
2021/12/06 05:31:41;;;;;;;55.83;31.10;;;1.60;99.90;;;;;;5048491;28;20520;-62
2021/12/06 05:34:15;;;;;;;48.77;31.60;;;1.70;99.90;;;;;;5050866;28;20532;-62
2021/12/06 05:36:44;;;;;;;50.53;29.80;;;1.60;99.90;;;;;;5049976;28;20909;-61
2021/12/06 05:39:12;;;;;;;48.10;28.23;;;1.40;99.90;;;;;;5052138;28;20496;-61
2021/12/06 05:41:42;;;;;;;56.93;30.57;;;1.40;99.90;;;;;;5036195;28;20910;-62
2021/12/06 05:44:10;;;;;;;52.00;31.80;;;1.70;99.90;;;;;;5053856;28;20846;-62
2021/12/06 05:46:39;;;;;;;54.53;32.00;;;1.60;99.90;;;;;;5053565;28;20483;-62
2021/12/06 05:49:07;;;;;;;56.47;31.63;;;1.40;99.90;;;;;;5055041;28;20605;-61
2021/12/06 05:51:35;;;;;;;46.50;29.37;;;1.30;99.90;;;;;;5057704;28;20567;-62
2021/12/06 05:54:03;;;;;;;47.37;29.40;;;1.30;99.90;;;;;;5048817;28;20487;-62
2021/12/06 05:56:32;;;;;;;48.83;29.13;;;1.30;99.90;;;;;;5048504;28;20551;-62
2021/12/06 05:59:00;;;;;;;50.73;29.23;;;1.30;99.90;;;;;;5056281;28;20467;-62
2021/12/06 06:01:30;;;;;;;48.00;29.50;;;1.30;99.90;;;;;;5054914;28;20477;-62
2021/12/06 06:04:01;;;;;;;52.93;31.37;;;1.40;99.90;;;;;;5049900;28;20564;-62
2021/12/06 06:06:36;;;;;;;47.10;28.87;;;1.30;99.90;;;;;;5056324;28;20474;-62
2021/12/06 06:09:06;;;;;;;48.80;30.33;;;1.20;99.90;;;;;;5053672;28;20570;-60
2021/12/06 06:11:35;;;;;;;49.17;29.60;;;1.10;99.90;;;;;;5043675;28;20553;-62
2021/12/06 06:14:04;;;;;;;46.40;28.63;;;1.20;99.90;;;;;;5051473;28;20520;-62
2021/12/06 06:16:46;;;;;;;45.00;28.90;;;1.20;99.90;;;;;;5053613;28;20475;-61
2021/12/06 06:19:17;;;;;;;48.93;30.03;;;1.30;99.90;;;;;;5055030;28;20482;-62
2021/12/06 06:21:46;;;;;;;51.47;30.37;;;1.50;99.90;;;;;;5050928;28;20562;-62
2021/12/06 06:24:14;;;;;;;46.23;29.00;;;1.50;99.90;;;;;;5056056;28;20466;-62
2021/12/06 06:26:42;;;;;;;44.73;28.30;;;1.30;99.90;;;;;;5051908;28;20512;-61
2021/12/06 06:29:12;;;;;;;42.77;27.27;;;1.30;99.90;;;;;;5059434;28;20473;-62
2021/12/06 06:31:40;;;;;;;45.27;27.87;;;1.20;99.90;;;;;;5044330;28;20856;-62
2021/12/06 06:34:09;;;;;;;46.13;29.03;;;1.30;99.90;;;;;;5055698;28;20516;-63
2021/12/06 06:36:38;;;;;;;45.30;28.10;;;1.30;99.90;;;;;;5051588;28;20489;-62
2021/12/06 06:39:08;;;;;;;45.23;28.30;;;1.20;99.90;;;;;;5055854;28;20654;-62
2021/12/06 06:41:36;;;;;;;45.40;27.60;;;1.30;99.90;;;;;;5055644;28;21051;-61
2021/12/06 06:44:06;;;;;;;42.80;27.30;;;1.20;99.90;;;;;;5053067;28;21095;-63
2021/12/06 06:46:34;;;;;;;42.00;27.40;;;1.10;99.90;;;;;;5054581;28;20829;-63
2021/12/06 06:49:03;;;;;;;41.73;26.17;;;1.10;99.90;;;;;;5057562;28;21462;-62
2021/12/06 06:51:31;;;;;;;41.73;26.50;;;1.20;99.90;;;;;;5055201;28;20477;-62
2021/12/06 06:54:01;;;;;;;43.03;26.47;;;1.10;99.90;;;;;;5060195;28;20492;-63
2021/12/06 06:56:30;;;;;;;45.03;27.47;;;1.20;99.90;;;;;;5050116;28;20473;-63
2021/12/06 06:58:58;;;;;;;44.47;27.57;;;1.10;99.90;;;;;;5053787;28;20455;-63
2021/12/06 07:01:26;;;;;;;42.57;25.57;;;1.00;99.90;;;;;;5057792;28;20542;-63
2021/12/06 07:03:55;;;;;;;41.97;25.13;;;1.00;99.90;;;;;;5053858;28;20508;-63
2021/12/06 07:06:24;;;;;;;40.80;24.33;;;1.00;99.90;;;;;;5055756;28;20501;-63
2021/12/06 07:08:54;;;;;;;41.10;26.00;;;1.00;99.90;;;;;;5053690;28;20477;-63
2021/12/06 07:11:29;;;;;;;42.10;26.40;;;1.00;99.90;;;;;;5054651;28;20899;-63
2021/12/06 07:13:59;;;;;;;39.13;24.10;;;1.00;99.90;;;;;;5056273;28;20471;-63
2021/12/06 07:16:29;;;;;;;42.60;25.77;;;0.90;99.90;;;;;;5053919;28;20478;-63
2021/12/06 07:18:58;;;;;;;40.40;25.73;;;1.00;99.90;;;;;;5054230;28;21059;-63
2021/12/06 07:21:46;;;;;;;37.87;24.30;;;0.90;99.90;;;;;;5046233;28;20477;-62
2021/12/06 07:24:14;;;;;;;40.00;24.53;;;0.90;99.90;;;;;;5054801;28;20462;-62
2021/12/06 07:26:44;;;;;;;40.00;25.03;;;1.00;99.90;;;;;;5050701;28;20554;-62
2021/12/06 07:29:12;;;;;;;37.17;23.60;;;0.90;99.90;;;;;;5056746;28;20509;-62
2021/12/06 07:31:40;;;;;;;38.83;25.33;;;0.80;99.90;;;;;;5055189;28;20795;-63
2021/12/06 07:34:08;;;;;;;42.83;25.57;;;0.80;99.90;;;;;;5056490;28;20833;-62
2021/12/06 07:36:36;;;;;;;41.90;26.10;;;0.90;99.90;;;;;;5058577;28;20481;-63
2021/12/06 07:39:05;;;;;;;40.53;25.03;;;0.90;99.90;;;;;;5057176;28;20570;-63
2021/12/06 07:41:33;;;;;;;39.97;25.30;;;0.90;99.90;;;;;;5051121;28;20502;-63
2021/12/06 07:44:04;;;;;;;42.57;25.97;;;0.80;99.90;;;;;;5055605;28;20565;-63
2021/12/06 07:46:32;;;;;;;41.80;26.10;;;0.80;99.90;;;;;;5053686;28;20607;-63
2021/12/06 07:49:01;;;;;;;40.97;25.97;;;0.80;99.90;;;;;;5059394;28;21320;-63
2021/12/06 07:51:29;;;;;;;40.13;25.13;;;0.80;99.90;;;;;;5049827;28;20578;-63
2021/12/06 07:53:59;;;;;;;42.80;26.87;;;0.80;99.90;;;;;;5052307;28;20554;-63
2021/12/06 07:56:27;;;;;;;43.30;26.30;;;0.80;99.90;;;;;;5050188;28;20518;-63
2021/12/06 07:58:55;;;;;;;46.27;27.30;;;0.80;99.90;;;;;;5054482;28;20473;-61
2021/12/06 08:01:25;;;;;;;42.57;26.63;;;0.80;99.90;;;;;;5058110;28;20477;-63
2021/12/06 08:03:54;;;;;;;43.40;27.27;;;0.80;99.90;;;;;;5049726;28;20507;-62
2021/12/06 08:06:22;;;;;;;43.33;25.80;;;0.80;99.90;;;;;;5055796;28;20503;-62
2021/12/06 08:08:50;;;;;;;44.43;27.33;;;0.90;99.90;;;;;;5056081;28;20553;-63
2021/12/06 08:11:19;;;;;;;40.97;25.67;;;0.80;99.90;;;;;;5048266;28;20478;-63
2021/12/06 08:13:53;;;;;;;45.10;27.17;;;0.80;99.90;;;;;;5053821;28;20528;-63
2021/12/06 08:16:26;;;;;;;45.00;26.57;;;0.90;99.90;;;;;;5058879;28;20539;-62
2021/12/06 08:18:55;;;;;;;43.67;26.50;;;0.90;99.90;;;;;;5050375;28;20474;-63
2021/12/06 08:21:24;;;;;;;45.47;26.53;;;1.00;99.90;;;;;;5051253;28;20534;-63
2021/12/06 08:23:53;;;;;;;45.00;28.43;;;1.00;99.90;;;;;;5049749;28;20910;-63
2021/12/06 08:26:26;;;;;;;41.37;26.53;;;1.00;99.90;;;;;;5053272;28;20462;-62
2021/12/06 08:28:57;;;;;;;40.80;25.63;;;1.00;99.90;;;;;;5052111;28;20470;-62
2021/12/06 08:31:27;;;;;;;49.70;28.07;;;1.00;99.90;;;;;;5054471;28;20461;-63
2021/12/06 08:33:56;;;;;;;43.03;26.27;;;1.10;99.90;;;;;;5060129;28;20501;-62
2021/12/06 08:36:26;;;;;;;46.73;27.93;;;1.10;99.90;;;;;;5058235;28;20465;-62
2021/12/06 08:38:55;;;;;;;49.20;30.93;;;1.10;99.90;;;;;;5055052;28;20462;-63
2021/12/06 08:41:26;;;;;;;48.03;29.47;;;1.10;99.90;;;;;;5053360;28;20481;-63
2021/12/06 08:43:55;;;;;;;48.27;30.27;;;1.10;99.90;;;;;;5055943;28;20502;-62
2021/12/06 08:46:28;;;;;;;47.90;30.00;;;1.10;99.90;;;;;;5050599;28;20616;-62
2021/12/06 08:48:56;;;;;;;55.47;32.90;;;1.10;99.90;;;;;;5054842;28;20823;-63
2021/12/06 08:51:28;;;;;;;55.10;33.70;;;1.20;99.90;;;;;;5056667;28;20466;-62
2021/12/06 08:53:58;;;;;;;52.33;32.73;;;1.10;99.90;;;;;;5049782;28;20525;-62
2021/12/06 08:56:27;;;;;;;52.03;30.50;;;1.20;99.90;;;;;;5050148;28;21003;-61
2021/12/06 08:58:57;;;;;;;51.33;31.47;;;1.20;99.90;;;;;;5050241;28;20588;-62
2021/12/06 09:01:28;;;;;;;49.30;30.87;;;1.10;99.90;;;;;;5051562;28;20474;-63
2021/12/06 09:04:17;;;;;;;55.53;32.90;;;1.20;99.90;;;;;;5055218;28;20477;-62
2021/12/06 09:06:49;;;;;;;55.87;33.03;;;1.20;99.90;;;;;;5041415;28;20544;-63
2021/12/06 09:09:18;;;;;;;53.77;33.50;;;1.20;99.90;;;;;;5047956;28;20480;-63
2021/12/06 09:11:48;;;;;;;55.50;36.37;;;1.20;99.90;;;;;;5049398;28;20482;-62
2021/12/06 09:14:18;;;;;;;57.73;35.80;;;1.20;99.90;;;;;;5054680;28;21016;-62
2021/12/06 09:16:48;;;;;;;57.87;34.70;;;1.10;99.90;;;;;;5052779;28;20473;-62
2021/12/06 09:19:17;;;;;;;53.37;34.17;;;1.10;99.90;;;;;;5056347;28;20999;-62
2021/12/06 09:21:46;;;;;;;52.80;34.93;;;1.10;99.90;;;;;;5053386;28;20502;-62
2021/12/06 09:24:17;;;;;;;60.13;35.13;;;1.20;99.90;;;;;;5055016;28;20536;-62
2021/12/06 09:26:47;;;;;;;57.80;34.60;;;1.20;99.90;;;;;;5053559;28;20580;-62
2021/12/06 09:29:17;;;;;;;56.67;34.57;;;1.10;99.90;;;;;;5052768;28;20512;-62
2021/12/06 09:31:47;;;;;;;59.47;34.73;;;1.20;99.90;;;;;;5048983;28;20478;-62
2021/12/06 09:34:15;;;;;;;56.57;34.40;;;1.20;99.90;;;;;;5052217;28;20488;-63
2021/12/06 09:36:43;;;;;;;57.40;34.60;;;1.20;99.90;;;;;;5046522;28;20470;-63
2021/12/06 09:39:13;;;;;;;52.20;34.30;;;1.20;99.90;;;;;;5049185;28;21085;-62
2021/12/06 09:41:42;;;;;;;62.53;37.07;;;1.20;99.90;;;;;;5050532;28;20570;-62
2021/12/06 09:44:11;;;;;;;58.93;35.53;;;1.30;99.90;;;;;;5057336;28;20501;-63
2021/12/06 09:46:39;;;;;;;58.67;36.03;;;1.30;99.90;;;;;;5053829;28;20466;-62
2021/12/06 09:49:11;;;;;;;60.83;36.00;;;1.30;99.90;;;;;;5060320;28;20584;-62
2021/12/06 09:51:42;;;;;;;58.53;35.33;;;1.30;99.90;;;;;;5057561;28;20579;-63
2021/12/06 09:54:11;;;;;;;56.20;33.33;;;1.30;99.90;;;;;;5055909;28;20470;-62
2021/12/06 09:56:43;;;;;;;58.23;33.80;;;1.30;99.90;;;;;;5057542;28;20482;-63
2021/12/06 09:59:14;;;;;;;58.77;34.60;;;1.30;99.90;;;;;;5053456;28;20560;-63
2021/12/06 10:01:45;;;;;;;55.37;32.67;;;1.40;99.90;;;;;;5055577;28;20566;-62
2021/12/06 10:04:16;;;;;;;56.13;34.70;;;1.30;99.90;;;;;;5055770;28;20488;-62
2021/12/06 10:06:46;;;;;;;57.00;34.10;;;1.30;99.90;;;;;;5053969;28;20803;-62
2021/12/06 10:09:16;;;;;;;60.17;33.50;;;1.40;99.90;;;;;;5054165;28;20573;-62
2021/12/06 10:11:45;;;;;;;57.30;33.43;;;1.40;99.90;;;;;;5049121;28;20468;-62
2021/12/06 10:14:15;;;;;;;50.83;30.93;;;1.50;99.90;;;;;;5053449;28;20531;-62
2021/12/06 10:16:44;;;;;;;57.63;33.63;;;1.50;99.90;;;;;;5050987;28;20492;-62
2021/12/06 10:19:14;;;;;;;49.43;30.50;;;1.50;99.90;;;;;;5059967;28;20469;-60
2021/12/06 10:21:45;;;;;;;50.20;30.83;;;1.50;99.90;;;;;;5049558;28;20482;-62
2021/12/06 10:24:15;;;;;;;49.57;30.37;;;1.40;99.90;;;;;;5056603;28;20461;-62
2021/12/06 10:26:44;;;;;;;49.50;30.03;;;1.40;99.90;;;;;;5056244;28;20563;-62
2021/12/06 10:29:20;;;;;;;54.33;31.40;;;1.40;99.90;;;;;;5060807;28;20480;-62
2021/12/06 10:31:51;;;;;;;49.67;31.57;;;1.40;99.90;;;;;;5048023;28;20500;-62
2021/12/06 10:34:24;;;;;;;52.93;31.33;;;1.40;99.90;;;;;;5060134;28;20777;-62
2021/12/06 10:36:54;;;;;;;57.33;32.63;;;1.30;99.90;;;;;;5054933;28;20847;-62
2021/12/06 10:39:24;;;;;;;54.20;32.67;;;1.40;99.90;;;;;;5055578;28;20560;-62
2021/12/06 10:41:53;;;;;;;55.67;31.40;;;1.30;99.90;;;;;;5057396;28;20501;-62
2021/12/06 10:44:21;;;;;;;54.03;30.57;;;1.40;99.90;;;;;;5058275;28;20482;-62
2021/12/06 10:46:52;;;;;;;49.07;30.03;;;1.40;99.90;;;;;;5053680;28;20467;-62
2021/12/06 10:49:23;;;;;;;51.67;30.60;;;1.40;99.90;;;;;;5053015;28;20569;-62
2021/12/06 10:51:53;;;;;;;50.57;30.77;;;1.30;99.90;;;;;;5045897;28;20474;-63
2021/12/06 10:54:34;;;;;;;48.73;29.87;;;1.40;99.90;;;;;;5051988;28;20561;-62
2021/12/06 10:57:03;;;;;;;51.27;31.13;;;1.40;99.90;;;;;;5047801;28;21056;-62
2021/12/06 10:59:36;;;;;;;51.47;29.57;;;1.40;99.90;;;;;;5051507;28;20517;-62
2021/12/06 11:02:07;;;;;;;47.73;29.13;;;1.40;99.90;;;;;;5050791;28;20476;-62
2021/12/06 11:04:38;;;;;;;46.97;28.27;;;1.40;99.90;;;;;;5050251;28;20478;-62
2021/12/06 11:07:09;;;;;;;48.27;28.07;;;1.40;99.90;;;;;;5050303;28;20852;-62
2021/12/06 11:09:40;;;;;;;46.60;28.93;;;1.40;99.90;;;;;;5049733;28;20532;-62
2021/12/06 11:12:10;;;;;;;45.50;27.63;;;1.40;99.90;;;;;;5047640;28;20465;-61
2021/12/06 11:14:40;;;;;;;45.53;27.93;;;1.40;99.90;;;;;;5048035;28;20990;-62
2021/12/06 11:17:10;;;;;;;46.60;27.87;;;1.30;99.90;;;;;;5047845;28;20517;-62
2021/12/06 11:19:39;;;;;;;42.87;27.53;;;1.30;99.90;;;;;;5045586;28;20768;-62
2021/12/06 11:22:11;;;;;;;44.50;28.37;;;1.40;99.90;;;;;;5050079;28;20453;-62
2021/12/06 11:24:43;;;;;;;43.70;27.07;;;1.40;99.90;;;;;;5053316;28;20541;-61
2021/12/06 11:27:13;;;;;;;45.43;28.60;;;1.30;99.90;;;;;;5049739;28;20845;-62
2021/12/06 11:29:43;;;;;;;46.40;27.73;;;1.40;99.90;;;;;;5047765;28;20441;-61
2021/12/06 11:32:15;;;;;;;43.73;28.13;;;1.40;99.90;;;;;;5052592;28;20443;-62
2021/12/06 11:34:45;;;;;;;46.53;28.73;;;1.40;99.90;;;;;;5052420;28;21056;-62
2021/12/06 11:37:21;;;;;;;45.80;27.40;;;1.40;99.90;;;;;;5054911;28;20452;-62
2021/12/06 11:39:51;;;;;;;40.50;27.47;;;1.30;99.90;;;;;;5056904;28;20972;-62
2021/12/06 11:42:19;;;;;;;40.80;26.33;;;1.30;99.90;;;;;;5054973;28;20492;-61
2021/12/06 11:44:48;;;;;;;39.03;25.63;;;1.40;99.90;;;;;;5056773;28;20439;-62
2021/12/06 11:47:19;;;;;;;44.73;26.53;;;1.40;99.90;;;;;;5060733;28;20957;-62
2021/12/06 11:49:52;;;;;;;40.73;26.30;;;1.40;99.90;;;;;;5052225;28;20537;-61
2021/12/06 11:52:25;;;;;;;38.47;26.50;;;1.40;99.90;;;;;;5048869;28;20466;-62
2021/12/06 11:54:57;;;;;;;40.33;26.10;;;1.40;99.90;;;;;;5049567;28;20545;-62
2021/12/06 11:57:28;;;;;;;42.33;26.43;;;1.40;99.90;;;;;;5049071;28;20466;-62
2021/12/06 12:00:06;;;;;;;38.73;26.17;;;1.40;99.90;;;;;;5052975;28;20515;-63
2021/12/06 12:02:45;;;;;;;40.60;26.73;;;1.50;99.90;;;;;;5050374;28;20484;-62
2021/12/06 12:05:34;;;;;;;44.00;25.77;;;1.50;99.90;;;;;;5049017;28;20554;-62
2021/12/06 12:08:08;;;;;;;41.70;26.47;;;1.50;99.90;;;;;;5047105;28;20454;-63
2021/12/06 12:10:46;;;;;;;44.60;28.17;;;1.50;99.90;;;;;;5053895;28;20900;-63
2021/12/06 12:13:23;;;;;;;40.30;26.30;;;1.60;99.90;;;;;;5056448;28;20573;-63
2021/12/06 12:15:52;;;;;;;42.77;26.63;;;1.60;99.90;;;;;;5059298;28;20441;-63
2021/12/06 12:18:21;;;;;;;41.30;26.17;;;1.60;99.90;;;;;;5058973;28;20745;-62
2021/12/06 12:20:53;;;;;;;38.87;24.80;;;1.50;99.90;;;;;;5049925;28;20530;-62
2021/12/06 12:23:30;;;;;;;38.47;25.23;;;1.50;99.90;;;;;;5052481;28;20851;-62
2021/12/06 12:26:04;;;;;;;41.40;26.67;;;1.50;99.90;;;;;;5055701;28;20477;-62
2021/12/06 12:28:36;;;;;;;40.33;25.37;;;1.60;99.90;;;;;;5051275;28;20542;-62
2021/12/06 12:31:07;;;;;;;39.97;25.10;;;1.60;99.90;;;;;;5057876;28;20446;-63
2021/12/06 12:33:36;;;;;;;40.90;26.00;;;1.60;99.90;;;;;;5062607;28;20461;-63
2021/12/06 12:36:07;;;;;;;41.77;25.77;;;1.60;99.90;;;;;;5053702;28;20823;-63
2021/12/06 12:38:39;;;;;;;39.60;26.47;;;1.60;99.90;;;;;;5050827;28;20443;-62
2021/12/06 12:41:09;;;;;;;38.17;25.90;;;1.50;99.90;;;;;;5050131;28;20486;-62
2021/12/06 12:43:39;;;;;;;41.20;26.50;;;1.50;99.90;;;;;;5054754;28;20887;-62
2021/12/06 12:46:11;;;;;;;44.00;27.80;;;1.50;99.90;;;;;;5048856;28;20439;-62
2021/12/06 12:48:55;;;;;;;37.50;25.77;;;1.50;99.90;;;;;;5053511;28;20799;-63
2021/12/06 12:51:29;;;;;;;40.53;27.10;;;1.50;99.90;;;;;;5059938;28;20445;-63
2021/12/06 12:54:04;;;;;;;40.17;26.23;;;1.50;99.90;;;;;;5051106;28;20501;-63
2021/12/06 12:56:37;;;;;;;41.53;27.67;;;1.70;99.90;;;;;;5052908;28;20507;-63
2021/12/06 12:59:29;;;;;;;43.30;26.80;;;1.60;99.90;;;;;;5048088;28;20442;-62
2021/12/06 13:02:19;;;;;;;48.87;29.37;;;1.70;99.90;;;;;;5042995;28;20447;-63